sensor_id;sensor_type;location;lat;lon;timestamp;P1;durP1;ratioP1;P2;durP2;ratioP2
35496;SDS011;21609;49.298;6.844;2022-07-29T00:00:57;3.60;;;3.38;;
35496;SDS011;21609;49.298;6.844;2022-07-29T00:03:22;3.05;;;2.85;;
35496;SDS011;21609;49.298;6.844;2022-07-29T00:05:48;3.00;;;2.75;;
35496;SDS011;21609;49.298;6.844;2022-07-29T00:08:13;3.85;;;3.03;;
35496;SDS011;21609;49.298;6.844;2022-07-29T00:10:40;2.90;;;2.70;;
35496;SDS011;21609;49.298;6.844;2022-07-29T00:13:06;3.65;;;3.33;;
35496;SDS011;21609;49.298;6.844;2022-07-29T00:15:32;3.22;;;3.03;;
35496;SDS011;21609;49.298;6.844;2022-07-29T00:17:58;5.10;;;3.05;;
35496;SDS011;21609;49.298;6.844;2022-07-29T00:20:23;3.90;;;3.20;;
35496;SDS011;21609;49.298;6.844;2022-07-29T00:22:49;3.42;;;3.13;;
35496;SDS011;21609;49.298;6.844;2022-07-29T00:25:15;3.03;;;2.80;;
35496;SDS011;21609;49.298;6.844;2022-07-29T00:27:40;3.50;;;3.20;;
35496;SDS011;21609;49.298;6.844;2022-07-29T00:30:06;2.72;;;2.53;;
35496;SDS011;21609;49.298;6.844;2022-07-29T00:32:33;3.55;;;3.08;;
35496;SDS011;21609;49.298;6.844;2022-07-29T00:34:59;2.75;;;2.65;;
35496;SDS011;21609;49.298;6.844;2022-07-29T00:37:52;3.67;;;3.20;;
35496;SDS011;21609;49.298;6.844;2022-07-29T00:40:20;2.95;;;2.75;;
35496;SDS011;21609;49.298;6.844;2022-07-29T00:42:47;3.45;;;3.15;;
35496;SDS011;21609;49.298;6.844;2022-07-29T00:45:15;5.95;;;3.00;;
35496;SDS011;21609;49.298;6.844;2022-07-29T00:47:41;3.63;;;3.13;;
35496;SDS011;21609;49.298;6.844;2022-07-29T00:50:08;4.05;;;3.35;;
35496;SDS011;21609;49.298;6.844;2022-07-29T00:52:35;3.30;;;3.10;;
35496;SDS011;21609;49.298;6.844;2022-07-29T00:55:03;3.25;;;2.97;;
35496;SDS011;21609;49.298;6.844;2022-07-29T00:57:29;3.55;;;3.35;;
35496;SDS011;21609;49.298;6.844;2022-07-29T00:59:55;3.15;;;2.90;;
35496;SDS011;21609;49.298;6.844;2022-07-29T01:02:21;3.47;;;3.17;;
35496;SDS011;21609;49.298;6.844;2022-07-29T01:04:46;3.55;;;3.25;;
35496;SDS011;21609;49.298;6.844;2022-07-29T01:07:13;3.58;;;3.10;;
35496;SDS011;21609;49.298;6.844;2022-07-29T01:09:40;3.75;;;3.45;;
35496;SDS011;21609;49.298;6.844;2022-07-29T01:12:07;3.38;;;3.17;;
35496;SDS011;21609;49.298;6.844;2022-07-29T01:14:33;3.22;;;3.03;;
35496;SDS011;21609;49.298;6.844;2022-07-29T01:17:04;4.53;;;3.03;;
35496;SDS011;21609;49.298;6.844;2022-07-29T01:19:53;3.03;;;2.83;;
35496;SDS011;21609;49.298;6.844;2022-07-29T01:25:40;3.55;;;3.30;;
35496;SDS011;21609;49.298;6.844;2022-07-29T01:28:36;3.53;;;3.22;;
35496;SDS011;21609;49.298;6.844;2022-07-29T01:31:28;3.53;;;3.22;;
35496;SDS011;21609;49.298;6.844;2022-07-29T01:34:01;3.78;;;3.47;;
35496;SDS011;21609;49.298;6.844;2022-07-29T01:36:37;3.30;;;3.03;;
35496;SDS011;21609;49.298;6.844;2022-07-29T01:44:56;3.10;;;2.90;;
35496;SDS011;21609;49.298;6.844;2022-07-29T01:47:28;3.92;;;3.58;;
35496;SDS011;21609;49.298;6.844;2022-07-29T01:52:36;4.07;;;3.22;;
35496;SDS011;21609;49.298;6.844;2022-07-29T01:55:07;3.50;;;3.20;;
35496;SDS011;21609;49.298;6.844;2022-07-29T01:57:38;3.10;;;2.88;;
35496;SDS011;21609;49.298;6.844;2022-07-29T02:00:07;3.65;;;3.25;;
35496;SDS011;21609;49.298;6.844;2022-07-29T02:02:33;3.33;;;3.13;;
35496;SDS011;21609;49.298;6.844;2022-07-29T02:05:02;3.88;;;3.58;;
35496;SDS011;21609;49.298;6.844;2022-07-29T02:07:29;4.30;;;3.22;;
35496;SDS011;21609;49.298;6.844;2022-07-29T02:09:57;3.25;;;3.05;;
35496;SDS011;21609;49.298;6.844;2022-07-29T02:12:25;3.03;;;2.85;;
35496;SDS011;21609;49.298;6.844;2022-07-29T02:14:52;3.22;;;3.03;;
35496;SDS011;21609;49.298;6.844;2022-07-29T02:17:23;3.88;;;2.88;;
35496;SDS011;21609;49.298;6.844;2022-07-29T02:19:55;3.28;;;2.97;;
35496;SDS011;21609;49.298;6.844;2022-07-29T02:22:24;4.40;;;3.30;;
35496;SDS011;21609;49.298;6.844;2022-07-29T02:24:53;3.05;;;2.85;;
35496;SDS011;21609;49.298;6.844;2022-07-29T02:27:20;3.00;;;2.80;;
35496;SDS011;21609;49.298;6.844;2022-07-29T02:29:47;3.13;;;2.92;;
35496;SDS011;21609;49.298;6.844;2022-07-29T02:32:15;3.47;;;3.28;;
35496;SDS011;21609;49.298;6.844;2022-07-29T02:34:41;3.08;;;2.88;;
35496;SDS011;21609;49.298;6.844;2022-07-29T02:37:10;3.70;;;3.40;;
35496;SDS011;21609;49.298;6.844;2022-07-29T02:39:36;3.78;;;3.47;;
35496;SDS011;21609;49.298;6.844;2022-07-29T02:42:05;3.40;;;3.10;;
35496;SDS011;21609;49.298;6.844;2022-07-29T02:44:33;3.35;;;3.05;;
35496;SDS011;21609;49.298;6.844;2022-07-29T02:47:04;3.55;;;2.75;;
35496;SDS011;21609;49.298;6.844;2022-07-29T02:49:38;3.45;;;3.15;;
35496;SDS011;21609;49.298;6.844;2022-07-29T02:52:31;2.80;;;2.60;;
35496;SDS011;21609;49.298;6.844;2022-07-29T02:55:07;3.67;;;3.40;;
35496;SDS011;21609;49.298;6.844;2022-07-29T02:57:41;3.45;;;3.22;;
35496;SDS011;21609;49.298;6.844;2022-07-29T03:00:09;3.63;;;3.33;;
35496;SDS011;21609;49.298;6.844;2022-07-29T03:02:37;3.40;;;3.15;;
35496;SDS011;21609;49.298;6.844;2022-07-29T03:05:06;3.33;;;3.13;;
35496;SDS011;21609;49.298;6.844;2022-07-29T03:07:35;3.38;;;3.08;;
35496;SDS011;21609;49.298;6.844;2022-07-29T03:10:02;3.38;;;3.17;;
35496;SDS011;21609;49.298;6.844;2022-07-29T03:12:29;3.35;;;3.05;;
35496;SDS011;21609;49.298;6.844;2022-07-29T03:14:55;3.40;;;3.20;;
35496;SDS011;21609;49.298;6.844;2022-07-29T03:17:22;3.50;;;3.20;;
35496;SDS011;21609;49.298;6.844;2022-07-29T03:19:48;3.53;;;3.33;;
35496;SDS011;21609;49.298;6.844;2022-07-29T03:22:14;3.58;;;3.28;;
35496;SDS011;21609;49.298;6.844;2022-07-29T03:24:40;3.40;;;3.10;;
35496;SDS011;21609;49.298;6.844;2022-07-29T03:27:06;3.17;;;2.90;;
35496;SDS011;21609;49.298;6.844;2022-07-29T03:29:31;3.13;;;2.92;;
35496;SDS011;21609;49.298;6.844;2022-07-29T03:31:57;3.28;;;3.08;;
35496;SDS011;21609;49.298;6.844;2022-07-29T03:34:23;3.03;;;2.58;;
35496;SDS011;21609;49.298;6.844;2022-07-29T03:36:49;3.33;;;3.03;;
35496;SDS011;21609;49.298;6.844;2022-07-29T03:39:15;3.83;;;3.53;;
35496;SDS011;21609;49.298;6.844;2022-07-29T03:41:45;3.83;;;3.53;;
35496;SDS011;21609;49.298;6.844;2022-07-29T03:44:13;3.60;;;3.35;;
35496;SDS011;21609;49.298;6.844;2022-07-29T03:46:39;3.42;;;3.17;;
35496;SDS011;21609;49.298;6.844;2022-07-29T03:49:08;3.05;;;2.85;;
35496;SDS011;21609;49.298;6.844;2022-07-29T03:51:36;3.33;;;3.08;;
35496;SDS011;21609;49.298;6.844;2022-07-29T03:54:04;3.55;;;3.25;;
35496;SDS011;21609;49.298;6.844;2022-07-29T03:56:30;3.17;;;2.97;;
35496;SDS011;21609;49.298;6.844;2022-07-29T03:58:59;3.10;;;2.90;;
35496;SDS011;21609;49.298;6.844;2022-07-29T04:01:27;3.35;;;3.15;;
35496;SDS011;21609;49.298;6.844;2022-07-29T04:03:54;3.17;;;2.97;;
35496;SDS011;21609;49.298;6.844;2022-07-29T04:06:20;3.30;;;3.10;;
35496;SDS011;21609;49.298;6.844;2022-07-29T04:08:46;3.50;;;3.30;;
35496;SDS011;21609;49.298;6.844;2022-07-29T04:11:11;4.00;;;3.70;;
35496;SDS011;21609;49.298;6.844;2022-07-29T04:13:37;3.25;;;3.05;;
35496;SDS011;21609;49.298;6.844;2022-07-29T04:16:03;3.63;;;3.42;;
35496;SDS011;21609;49.298;6.844;2022-07-29T04:18:29;3.13;;;2.92;;
35496;SDS011;21609;49.298;6.844;2022-07-29T04:20:54;3.00;;;2.80;;
35496;SDS011;21609;49.298;6.844;2022-07-29T04:23:20;4.18;;;3.30;;
35496;SDS011;21609;49.298;6.844;2022-07-29T04:25:45;3.85;;;3.10;;
35496;SDS011;21609;49.298;6.844;2022-07-29T04:28:11;3.30;;;3.10;;
35496;SDS011;21609;49.298;6.844;2022-07-29T04:30:37;3.20;;;2.90;;
35496;SDS011;21609;49.298;6.844;2022-07-29T04:33:04;3.92;;;3.63;;
35496;SDS011;21609;49.298;6.844;2022-07-29T04:35:31;4.05;;;3.70;;
35496;SDS011;21609;49.298;6.844;2022-07-29T04:38:00;3.35;;;3.15;;
35496;SDS011;21609;49.298;6.844;2022-07-29T04:40:25;3.25;;;2.95;;
35496;SDS011;21609;49.298;6.844;2022-07-29T04:42:51;3.63;;;3.22;;
35496;SDS011;21609;49.298;6.844;2022-07-29T04:45:16;3.17;;;2.80;;
35496;SDS011;21609;49.298;6.844;2022-07-29T04:47:42;3.33;;;3.03;;
35496;SDS011;21609;49.298;6.844;2022-07-29T04:50:08;3.45;;;3.25;;
35496;SDS011;21609;49.298;6.844;2022-07-29T04:52:34;3.70;;;3.40;;
35496;SDS011;21609;49.298;6.844;2022-07-29T04:55:00;2.97;;;2.78;;
35496;SDS011;21609;49.298;6.844;2022-07-29T04:57:26;3.75;;;3.45;;
35496;SDS011;21609;49.298;6.844;2022-07-29T04:59:51;3.00;;;2.80;;
35496;SDS011;21609;49.298;6.844;2022-07-29T05:02:17;3.25;;;3.03;;
35496;SDS011;21609;49.298;6.844;2022-07-29T05:04:43;3.28;;;2.97;;
35496;SDS011;21609;49.298;6.844;2022-07-29T05:07:08;3.80;;;3.42;;
35496;SDS011;21609;49.298;6.844;2022-07-29T05:09:34;3.53;;;3.22;;
35496;SDS011;21609;49.298;6.844;2022-07-29T05:11:59;3.60;;;3.13;;
35496;SDS011;21609;49.298;6.844;2022-07-29T05:14:25;4.50;;;4.03;;
35496;SDS011;21609;49.298;6.844;2022-07-29T05:16:50;3.67;;;3.38;;
35496;SDS011;21609;49.298;6.844;2022-07-29T05:19:16;3.20;;;3.00;;
35496;SDS011;21609;49.298;6.844;2022-07-29T05:21:42;3.78;;;3.47;;
35496;SDS011;21609;49.298;6.844;2022-07-29T05:24:09;5.75;;;3.40;;
35496;SDS011;21609;49.298;6.844;2022-07-29T05:26:35;3.90;;;3.58;;
35496;SDS011;21609;49.298;6.844;2022-07-29T05:29:00;3.30;;;3.05;;
35496;SDS011;21609;49.298;6.844;2022-07-29T05:31:26;3.60;;;3.25;;
35496;SDS011;21609;49.298;6.844;2022-07-29T05:33:52;3.33;;;3.10;;
35496;SDS011;21609;49.298;6.844;2022-07-29T05:36:17;3.25;;;2.95;;
35496;SDS011;21609;49.298;6.844;2022-07-29T05:38:43;3.50;;;3.10;;
35496;SDS011;21609;49.298;6.844;2022-07-29T05:41:09;3.80;;;3.50;;
35496;SDS011;21609;49.298;6.844;2022-07-29T05:43:34;6.75;;;3.65;;
35496;SDS011;21609;49.298;6.844;2022-07-29T05:46:00;6.43;;;2.60;;
35496;SDS011;21609;49.298;6.844;2022-07-29T05:48:25;6.30;;;3.05;;
35496;SDS011;21609;49.298;6.844;2022-07-29T05:50:51;10.30;;;3.40;;
35496;SDS011;21609;49.298;6.844;2022-07-29T05:53:16;5.20;;;3.22;;
35496;SDS011;21609;49.298;6.844;2022-07-29T05:55:42;3.85;;;3.22;;
35496;SDS011;21609;49.298;6.844;2022-07-29T05:58:07;3.45;;;3.17;;
35496;SDS011;21609;49.298;6.844;2022-07-29T06:00:33;5.72;;;3.60;;
35496;SDS011;21609;49.298;6.844;2022-07-29T06:02:59;3.90;;;3.60;;
35496;SDS011;21609;49.298;6.844;2022-07-29T06:05:24;4.25;;;3.85;;
35496;SDS011;21609;49.298;6.844;2022-07-29T06:07:50;4.68;;;3.50;;
35496;SDS011;21609;49.298;6.844;2022-07-29T06:10:15;4.60;;;3.80;;
35496;SDS011;21609;49.298;6.844;2022-07-29T06:12:41;4.60;;;3.88;;
35496;SDS011;21609;49.298;6.844;2022-07-29T06:15:07;6.57;;;3.50;;
35496;SDS011;21609;49.298;6.844;2022-07-29T06:17:33;4.28;;;3.58;;
35496;SDS011;21609;49.298;6.844;2022-07-29T06:19:58;4.32;;;3.80;;
35496;SDS011;21609;49.298;6.844;2022-07-29T06:22:24;6.25;;;4.07;;
35496;SDS011;21609;49.298;6.844;2022-07-29T06:24:49;9.93;;;3.75;;
35496;SDS011;21609;49.298;6.844;2022-07-29T06:27:15;5.78;;;4.05;;
35496;SDS011;21609;49.298;6.844;2022-07-29T06:29:41;4.50;;;3.30;;
35496;SDS011;21609;49.298;6.844;2022-07-29T06:32:07;5.00;;;4.13;;
35496;SDS011;21609;49.298;6.844;2022-07-29T06:34:34;6.10;;;3.70;;
35496;SDS011;21609;49.298;6.844;2022-07-29T06:37:00;5.03;;;3.90;;
35496;SDS011;21609;49.298;6.844;2022-07-29T06:39:30;8.02;;;4.03;;
35496;SDS011;21609;49.298;6.844;2022-07-29T06:41:55;7.80;;;4.10;;
35496;SDS011;21609;49.298;6.844;2022-07-29T06:44:21;4.68;;;4.10;;
35496;SDS011;21609;49.298;6.844;2022-07-29T06:46:46;7.32;;;3.60;;
35496;SDS011;21609;49.298;6.844;2022-07-29T06:49:14;4.90;;;3.97;;
35496;SDS011;21609;49.298;6.844;2022-07-29T06:51:40;4.32;;;3.55;;
35496;SDS011;21609;49.298;6.844;2022-07-29T06:54:06;4.40;;;3.92;;
35496;SDS011;21609;49.298;6.844;2022-07-29T06:56:32;5.30;;;3.40;;
35496;SDS011;21609;49.298;6.844;2022-07-29T06:59:01;4.00;;;3.70;;
35496;SDS011;21609;49.298;6.844;2022-07-29T07:01:27;13.00;;;4.45;;
35496;SDS011;21609;49.298;6.844;2022-07-29T07:03:53;5.80;;;4.43;;
35496;SDS011;21609;49.298;6.844;2022-07-29T07:06:18;4.32;;;3.22;;
35496;SDS011;21609;49.298;6.844;2022-07-29T07:08:44;4.80;;;3.92;;
35496;SDS011;21609;49.298;6.844;2022-07-29T07:11:09;4.30;;;3.58;;
35496;SDS011;21609;49.298;6.844;2022-07-29T07:13:35;3.58;;;3.35;;
35496;SDS011;21609;49.298;6.844;2022-07-29T07:16:01;3.80;;;3.50;;
35496;SDS011;21609;49.298;6.844;2022-07-29T07:18:27;4.55;;;4.15;;
35496;SDS011;21609;49.298;6.844;2022-07-29T07:20:52;4.38;;;4.07;;
35496;SDS011;21609;49.298;6.844;2022-07-29T07:23:18;7.15;;;4.38;;
35496;SDS011;21609;49.298;6.844;2022-07-29T07:25:44;6.03;;;3.58;;
35496;SDS011;21609;49.298;6.844;2022-07-29T07:28:10;22.42;;;4.60;;
35496;SDS011;21609;49.298;6.844;2022-07-29T07:30:35;6.35;;;3.55;;
35496;SDS011;21609;49.298;6.844;2022-07-29T07:33:01;4.47;;;3.58;;
35496;SDS011;21609;49.298;6.844;2022-07-29T07:35:27;4.85;;;3.67;;
35496;SDS011;21609;49.298;6.844;2022-07-29T07:37:53;3.97;;;3.55;;
35496;SDS011;21609;49.298;6.844;2022-07-29T07:40:20;4.85;;;3.78;;
35496;SDS011;21609;49.298;6.844;2022-07-29T07:42:46;4.22;;;3.05;;
35496;SDS011;21609;49.298;6.844;2022-07-29T07:45:11;4.65;;;3.90;;
35496;SDS011;21609;49.298;6.844;2022-07-29T07:47:37;6.15;;;3.95;;
35496;SDS011;21609;49.298;6.844;2022-07-29T07:50:05;5.25;;;3.95;;
35496;SDS011;21609;49.298;6.844;2022-07-29T07:52:31;5.40;;;3.95;;
35496;SDS011;21609;49.298;6.844;2022-07-29T07:54:57;4.30;;;3.60;;
35496;SDS011;21609;49.298;6.844;2022-07-29T07:57:23;4.60;;;3.58;;
35496;SDS011;21609;49.298;6.844;2022-07-29T07:59:48;4.03;;;3.53;;
35496;SDS011;21609;49.298;6.844;2022-07-29T08:02:14;14.60;;;3.47;;
35496;SDS011;21609;49.298;6.844;2022-07-29T08:04:39;4.32;;;4.03;;
35496;SDS011;21609;49.298;6.844;2022-07-29T08:07:05;6.68;;;3.90;;
35496;SDS011;21609;49.298;6.844;2022-07-29T08:09:31;5.65;;;4.40;;
35496;SDS011;21609;49.298;6.844;2022-07-29T08:11:57;6.45;;;4.28;;
35496;SDS011;21609;49.298;6.844;2022-07-29T08:14:24;8.20;;;4.45;;
35496;SDS011;21609;49.298;6.844;2022-07-29T08:16:50;5.70;;;4.43;;
35496;SDS011;21609;49.298;6.844;2022-07-29T08:19:16;6.72;;;3.90;;
35496;SDS011;21609;49.298;6.844;2022-07-29T08:21:41;4.97;;;3.75;;
35496;SDS011;21609;49.298;6.844;2022-07-29T08:24:07;3.83;;;3.50;;
35496;SDS011;21609;49.298;6.844;2022-07-29T08:26:51;4.95;;;3.60;;
35496;SDS011;21609;49.298;6.844;2022-07-29T08:29:16;6.45;;;4.15;;
35496;SDS011;21609;49.298;6.844;2022-07-29T08:31:42;5.93;;;4.03;;
35496;SDS011;21609;49.298;6.844;2022-07-29T08:34:07;6.47;;;4.03;;
35496;SDS011;21609;49.298;6.844;2022-07-29T08:36:33;7.43;;;4.22;;
35496;SDS011;21609;49.298;6.844;2022-07-29T08:38:59;6.63;;;4.57;;
35496;SDS011;21609;49.298;6.844;2022-07-29T08:41:25;7.40;;;4.35;;
35496;SDS011;21609;49.298;6.844;2022-07-29T08:43:51;4.95;;;4.20;;
35496;SDS011;21609;49.298;6.844;2022-07-29T08:46:18;10.02;;;4.30;;
35496;SDS011;21609;49.298;6.844;2022-07-29T08:48:44;9.30;;;4.25;;
35496;SDS011;21609;49.298;6.844;2022-07-29T08:51:17;5.75;;;4.30;;
35496;SDS011;21609;49.298;6.844;2022-07-29T08:53:45;4.15;;;3.72;;
35496;SDS011;21609;49.298;6.844;2022-07-29T08:56:13;4.72;;;3.83;;
35496;SDS011;21609;49.298;6.844;2022-07-29T08:58:41;6.05;;;3.72;;
35496;SDS011;21609;49.298;6.844;2022-07-29T09:01:07;9.18;;;4.70;;
35496;SDS011;21609;49.298;6.844;2022-07-29T09:03:36;9.25;;;3.95;;
35496;SDS011;21609;49.298;6.844;2022-07-29T09:06:03;4.43;;;3.53;;
35496;SDS011;21609;49.298;6.844;2022-07-29T09:08:30;5.63;;;3.88;;
35496;SDS011;21609;49.298;6.844;2022-07-29T09:10:57;5.63;;;4.10;;
35496;SDS011;21609;49.298;6.844;2022-07-29T09:13:25;9.77;;;3.75;;
35496;SDS011;21609;49.298;6.844;2022-07-29T09:15:50;5.10;;;3.70;;
35496;SDS011;21609;49.298;6.844;2022-07-29T09:21:13;6.90;;;4.05;;
35496;SDS011;21609;49.298;6.844;2022-07-29T09:24:06;4.60;;;3.80;;
35496;SDS011;21609;49.298;6.844;2022-07-29T09:26:36;5.18;;;3.47;;
35496;SDS011;21609;49.298;6.844;2022-07-29T09:29:08;5.38;;;3.72;;
35496;SDS011;21609;49.298;6.844;2022-07-29T09:31:37;6.05;;;4.65;;
35496;SDS011;21609;49.298;6.844;2022-07-29T09:34:04;7.15;;;4.25;;
35496;SDS011;21609;49.298;6.844;2022-07-29T09:36:37;4.50;;;4.07;;
35496;SDS011;21609;49.298;6.844;2022-07-29T09:39:11;4.93;;;4.27;;
35496;SDS011;21609;49.298;6.844;2022-07-29T09:41:53;5.00;;;4.18;;
35496;SDS011;21609;49.298;6.844;2022-07-29T09:44:23;5.55;;;3.50;;
35496;SDS011;21609;49.298;6.844;2022-07-29T09:46:56;8.57;;;5.18;;
35496;SDS011;21609;49.298;6.844;2022-07-29T09:49:33;11.57;;;4.03;;
35496;SDS011;21609;49.298;6.844;2022-07-29T09:52:04;7.65;;;3.85;;
35496;SDS011;21609;49.298;6.844;2022-07-29T09:54:34;5.97;;;3.70;;
35496;SDS011;21609;49.298;6.844;2022-07-29T09:57:04;5.82;;;3.83;;
35496;SDS011;21609;49.298;6.844;2022-07-29T09:59:31;4.00;;;3.63;;
35496;SDS011;21609;49.298;6.844;2022-07-29T10:01:57;5.78;;;3.60;;
35496;SDS011;21609;49.298;6.844;2022-07-29T10:04:38;22.88;;;4.55;;
35496;SDS011;21609;49.298;6.844;2022-07-29T10:07:05;7.88;;;3.47;;
35496;SDS011;21609;49.298;6.844;2022-07-29T10:09:31;8.23;;;3.90;;
35496;SDS011;21609;49.298;6.844;2022-07-29T10:17:05;4.63;;;3.17;;
35496;SDS011;21609;49.298;6.844;2022-07-29T10:19:32;3.65;;;3.35;;
35496;SDS011;21609;49.298;6.844;2022-07-29T10:21:58;3.42;;;2.88;;
35496;SDS011;21609;49.298;6.844;2022-07-29T10:24:26;3.55;;;3.20;;
35496;SDS011;21609;49.298;6.844;2022-07-29T10:26:56;2.78;;;2.58;;
35496;SDS011;21609;49.298;6.844;2022-07-29T10:29:23;6.85;;;3.08;;
35496;SDS011;21609;49.298;6.844;2022-07-29T10:35:12;3.58;;;2.97;;
35496;SDS011;21609;49.298;6.844;2022-07-29T10:41:16;3.20;;;2.90;;
35496;SDS011;21609;49.298;6.844;2022-07-29T10:43:58;3.55;;;3.25;;
35496;SDS011;21609;49.298;6.844;2022-07-29T10:46:26;3.28;;;3.00;;
35496;SDS011;21609;49.298;6.844;2022-07-29T10:51:50;4.70;;;3.00;;
35496;SDS011;21609;49.298;6.844;2022-07-29T11:04:59;5.07;;;3.03;;
35496;SDS011;21609;49.298;6.844;2022-07-29T11:07:26;2.83;;;2.63;;
35496;SDS011;21609;49.298;6.844;2022-07-29T11:20:44;3.75;;;2.70;;
35496;SDS011;21609;49.298;6.844;2022-07-29T11:28:53;4.30;;;3.25;;
35496;SDS011;21609;49.298;6.844;2022-07-29T11:31:47;2.80;;;2.58;;
35496;SDS011;21609;49.298;6.844;2022-07-29T11:37:13;3.83;;;2.83;;
35496;SDS011;21609;49.298;6.844;2022-07-29T11:39:34;8.15;;;3.05;;
35496;SDS011;21609;49.298;6.844;2022-07-29T11:47:26;3.97;;;2.47;;
35496;SDS011;21609;49.298;6.844;2022-07-29T11:49:55;3.83;;;2.78;;
35496;SDS011;21609;49.298;6.844;2022-07-29T11:52:22;3.88;;;2.45;;
35496;SDS011;21609;49.298;6.844;2022-07-29T11:54:56;6.30;;;2.97;;
35496;SDS011;21609;49.298;6.844;2022-07-29T11:57:26;4.07;;;2.80;;
35496;SDS011;21609;49.298;6.844;2022-07-29T11:59:52;5.03;;;2.67;;
35496;SDS011;21609;49.298;6.844;2022-07-29T12:02:20;3.97;;;2.85;;
35496;SDS011;21609;49.298;6.844;2022-07-29T12:04:51;3.22;;;2.60;;
35496;SDS011;21609;49.298;6.844;2022-07-29T12:07:25;6.05;;;3.15;;
35496;SDS011;21609;49.298;6.844;2022-07-29T12:09:55;3.67;;;2.67;;
35496;SDS011;21609;49.298;6.844;2022-07-29T12:12:20;4.60;;;2.47;;
35496;SDS011;21609;49.298;6.844;2022-07-29T12:14:46;6.47;;;2.70;;
35496;SDS011;21609;49.298;6.844;2022-07-29T12:20:13;3.72;;;2.58;;
35496;SDS011;21609;49.298;6.844;2022-07-29T12:22:52;4.57;;;3.13;;
35496;SDS011;21609;49.298;6.844;2022-07-29T12:25:18;7.53;;;2.55;;
35496;SDS011;21609;49.298;6.844;2022-07-29T12:27:45;5.90;;;3.03;;
35496;SDS011;21609;49.298;6.844;2022-07-29T12:30:13;5.35;;;3.10;;
35496;SDS011;21609;49.298;6.844;2022-07-29T12:32:42;4.15;;;2.80;;
35496;SDS011;21609;49.298;6.844;2022-07-29T12:35:13;6.68;;;2.60;;
35496;SDS011;21609;49.298;6.844;2022-07-29T12:37:41;6.32;;;3.20;;
35496;SDS011;21609;49.298;6.844;2022-07-29T12:40:09;5.07;;;2.60;;
35496;SDS011;21609;49.298;6.844;2022-07-29T12:42:37;8.73;;;2.72;;
35496;SDS011;21609;49.298;6.844;2022-07-29T12:45:04;5.85;;;3.00;;
35496;SDS011;21609;49.298;6.844;2022-07-29T12:47:33;4.10;;;2.58;;
35496;SDS011;21609;49.298;6.844;2022-07-29T12:50:15;7.72;;;3.10;;
35496;SDS011;21609;49.298;6.844;2022-07-29T12:52:42;5.43;;;3.55;;
35496;SDS011;21609;49.298;6.844;2022-07-29T12:55:09;6.80;;;3.08;;
35496;SDS011;21609;49.298;6.844;2022-07-29T12:57:48;8.13;;;2.95;;
35496;SDS011;21609;49.298;6.844;2022-07-29T13:00:22;11.70;;;3.95;;
35496;SDS011;21609;49.298;6.844;2022-07-29T13:02:58;14.93;;;5.07;;
35496;SDS011;21609;49.298;6.844;2022-07-29T13:05:42;13.88;;;5.72;;
35496;SDS011;21609;49.298;6.844;2022-07-29T13:08:15;13.93;;;6.25;;
35496;SDS011;21609;49.298;6.844;2022-07-29T13:10:45;9.15;;;5.93;;
35496;SDS011;21609;49.298;6.844;2022-07-29T13:13:12;12.23;;;6.78;;
35496;SDS011;21609;49.298;6.844;2022-07-29T13:15:43;14.75;;;5.72;;
35496;SDS011;21609;49.298;6.844;2022-07-29T13:23:38;19.38;;;5.95;;
35496;SDS011;21609;49.298;6.844;2022-07-29T13:26:10;19.58;;;5.72;;
35496;SDS011;21609;49.298;6.844;2022-07-29T13:28:36;18.52;;;5.72;;
35496;SDS011;21609;49.298;6.844;2022-07-29T13:31:02;17.75;;;5.97;;
35496;SDS011;21609;49.298;6.844;2022-07-29T13:33:28;17.27;;;6.18;;
35496;SDS011;21609;49.298;6.844;2022-07-29T13:35:55;20.20;;;6.57;;
35496;SDS011;21609;49.298;6.844;2022-07-29T13:38:20;21.45;;;7.25;;
35496;SDS011;21609;49.298;6.844;2022-07-29T13:40:46;17.75;;;6.05;;
35496;SDS011;21609;49.298;6.844;2022-07-29T13:43:15;17.08;;;6.82;;
35496;SDS011;21609;49.298;6.844;2022-07-29T13:45:41;11.77;;;5.28;;
35496;SDS011;21609;49.298;6.844;2022-07-29T13:48:06;12.52;;;5.32;;
35496;SDS011;21609;49.298;6.844;2022-07-29T13:50:32;15.10;;;6.05;;
35496;SDS011;21609;49.298;6.844;2022-07-29T13:52:58;21.38;;;6.57;;
35496;SDS011;21609;49.298;6.844;2022-07-29T13:55:23;15.63;;;5.90;;
35496;SDS011;21609;49.298;6.844;2022-07-29T13:57:49;19.33;;;5.18;;
35496;SDS011;21609;49.298;6.844;2022-07-29T14:00:14;10.93;;;5.40;;
35496;SDS011;21609;49.298;6.844;2022-07-29T14:02:41;19.52;;;5.53;;
35496;SDS011;21609;49.298;6.844;2022-07-29T14:05:07;15.80;;;5.13;;
35496;SDS011;21609;49.298;6.844;2022-07-29T14:07:34;13.90;;;5.57;;
35496;SDS011;21609;49.298;6.844;2022-07-29T14:10:00;10.93;;;5.82;;
35496;SDS011;21609;49.298;6.844;2022-07-29T14:12:26;13.70;;;5.10;;
35496;SDS011;21609;49.298;6.844;2022-07-29T14:14:51;15.45;;;5.50;;
35496;SDS011;21609;49.298;6.844;2022-07-29T14:17:17;14.70;;;5.35;;
35496;SDS011;21609;49.298;6.844;2022-07-29T14:19:42;15.85;;;5.90;;
35496;SDS011;21609;49.298;6.844;2022-07-29T14:22:08;11.02;;;5.68;;
35496;SDS011;21609;49.298;6.844;2022-07-29T14:24:34;14.68;;;5.55;;
35496;SDS011;21609;49.298;6.844;2022-07-29T14:27:04;13.32;;;5.53;;
35496;SDS011;21609;49.298;6.844;2022-07-29T14:29:30;10.65;;;5.05;;
35496;SDS011;21609;49.298;6.844;2022-07-29T14:31:55;15.20;;;5.57;;
35496;SDS011;21609;49.298;6.844;2022-07-29T14:34:21;18.20;;;5.65;;
35496;SDS011;21609;49.298;6.844;2022-07-29T14:36:47;12.55;;;5.47;;
35496;SDS011;21609;49.298;6.844;2022-07-29T14:39:12;11.98;;;5.40;;
35496;SDS011;21609;49.298;6.844;2022-07-29T14:41:38;12.93;;;5.10;;
35496;SDS011;21609;49.298;6.844;2022-07-29T14:44:03;6.18;;;4.10;;
35496;SDS011;21609;49.298;6.844;2022-07-29T14:46:29;14.27;;;4.80;;
35496;SDS011;21609;49.298;6.844;2022-07-29T14:48:54;6.20;;;4.22;;
35496;SDS011;21609;49.298;6.844;2022-07-29T14:51:20;19.65;;;5.43;;
35496;SDS011;21609;49.298;6.844;2022-07-29T14:53:45;12.23;;;5.13;;
35496;SDS011;21609;49.298;6.844;2022-07-29T14:56:11;15.73;;;4.45;;
35496;SDS011;21609;49.298;6.844;2022-07-29T14:58:37;8.05;;;5.00;;
35496;SDS011;21609;49.298;6.844;2022-07-29T15:01:03;17.00;;;5.10;;
35496;SDS011;21609;49.298;6.844;2022-07-29T15:03:28;9.38;;;4.45;;
35496;SDS011;21609;49.298;6.844;2022-07-29T15:05:54;11.15;;;4.45;;
35496;SDS011;21609;49.298;6.844;2022-07-29T15:08:20;10.13;;;4.65;;
35496;SDS011;21609;49.298;6.844;2022-07-29T15:10:45;8.45;;;4.53;;
35496;SDS011;21609;49.298;6.844;2022-07-29T15:13:11;10.80;;;4.60;;
35496;SDS011;21609;49.298;6.844;2022-07-29T15:15:37;9.55;;;5.60;;
35496;SDS011;21609;49.298;6.844;2022-07-29T15:18:03;9.55;;;5.15;;
35496;SDS011;21609;49.298;6.844;2022-07-29T15:20:29;8.05;;;4.65;;
35496;SDS011;21609;49.298;6.844;2022-07-29T15:22:54;14.70;;;4.90;;
35496;SDS011;21609;49.298;6.844;2022-07-29T15:25:23;14.07;;;5.15;;
35496;SDS011;21609;49.298;6.844;2022-07-29T15:27:50;17.90;;;5.22;;
35496;SDS011;21609;49.298;6.844;2022-07-29T15:30:15;8.52;;;4.43;;
35496;SDS011;21609;49.298;6.844;2022-07-29T15:32:42;9.38;;;4.30;;
35496;SDS011;21609;49.298;6.844;2022-07-29T15:35:08;13.15;;;4.50;;
35496;SDS011;21609;49.298;6.844;2022-07-29T15:37:35;17.20;;;5.35;;
35496;SDS011;21609;49.298;6.844;2022-07-29T15:40:01;14.73;;;4.70;;
35496;SDS011;21609;49.298;6.844;2022-07-29T15:42:27;13.25;;;4.85;;
35496;SDS011;21609;49.298;6.844;2022-07-29T15:44:53;15.23;;;5.00;;
35496;SDS011;21609;49.298;6.844;2022-07-29T15:47:20;13.18;;;4.90;;
35496;SDS011;21609;49.298;6.844;2022-07-29T15:49:45;8.43;;;4.85;;
35496;SDS011;21609;49.298;6.844;2022-07-29T15:52:11;8.48;;;4.43;;
35496;SDS011;21609;49.298;6.844;2022-07-29T15:54:37;10.85;;;4.85;;
35496;SDS011;21609;49.298;6.844;2022-07-29T15:57:07;10.40;;;4.75;;
35496;SDS011;21609;49.298;6.844;2022-07-29T15:59:32;9.45;;;4.40;;
35496;SDS011;21609;49.298;6.844;2022-07-29T16:01:58;9.13;;;5.18;;